createdAt,value
2019-03-09T00:02:26.205Z,100593.22
2019-03-09T00:04:55.541Z,100589.27
2019-03-09T00:07:25.053Z,100587.07
2019-03-09T00:09:54.546Z,100591.72
2019-03-09T00:12:23.817Z,100586.20
2019-03-09T00:14:53.257Z,100583.77
2019-03-09T00:17:22.799Z,100585.22
2019-03-09T00:19:52.260Z,100578.16
2019-03-09T00:22:21.613Z,100577.59
2019-03-09T00:24:58.468Z,100575.95
2019-03-09T00:27:47.282Z,100579.36
2019-03-09T00:30:27.501Z,100572.97
2019-03-09T00:32:56.859Z,100575.07
2019-03-09T00:35:26.147Z,100572.34
2019-03-09T00:37:55.587Z,100561.73
2019-03-09T00:40:24.925Z,100575.45
2019-03-09T00:42:54.306Z,100570.19
2019-03-09T00:45:23.879Z,100572.98
2019-03-09T00:47:53.128Z,100578.95
2019-03-09T00:50:22.425Z,100577.66
2019-03-09T00:52:52.248Z,100575.05
2019-03-09T00:55:21.615Z,100573.58
2019-03-09T00:57:50.902Z,100571.27
2019-03-09T01:00:20.947Z,100558.09
2019-03-09T01:02:51.202Z,100563.70
2019-03-09T01:05:20.562Z,100558.27
2019-03-09T01:07:50.135Z,100546.44
2019-03-09T01:10:19.486Z,100543.80
2019-03-09T01:12:48.767Z,100545.27
2019-03-09T01:15:18.240Z,100543.37
2019-03-09T01:17:47.598Z,100531.50
2019-03-09T01:20:17.459Z,100537.40
2019-03-09T01:22:47.004Z,100532.03
2019-03-09T01:25:16.301Z,100529.14
2019-03-09T01:27:45.604Z,100529.39
2019-03-09T01:30:17.476Z,100524.59
2019-03-09T01:32:46.806Z,100531.14
2019-03-09T01:35:16.146Z,100523.77
2019-03-09T01:37:45.739Z,100518.63
2019-03-09T01:40:15.646Z,100509.93
2019-03-09T01:42:45.007Z,100507.04
2019-03-09T01:45:15.038Z,100505.39
2019-03-09T01:47:44.305Z,100497.13
2019-03-09T01:50:13.756Z,100497.78
2019-03-09T01:52:43.166Z,100494.70
2019-03-09T01:55:12.687Z,100487.48
2019-03-09T01:57:42.095Z,100480.23
2019-03-09T02:00:11.791Z,100471.19
2019-03-09T02:02:41.059Z,100468.25
2019-03-09T02:05:10.539Z,100462.64
2019-03-09T02:07:40.342Z,100454.48
2019-03-09T02:10:10.199Z,100456.95
2019-03-09T02:12:39.462Z,100453.24
2019-03-09T02:15:09.298Z,100449.05
2019-03-09T02:17:38.574Z,100437.29
2019-03-09T02:20:08.204Z,100438.36
2019-03-09T02:22:37.519Z,100441.26
2019-03-09T02:25:07.440Z,100432.22
2019-03-09T02:27:36.746Z,100427.72
2019-03-09T02:30:06.757Z,100427.66
2019-03-09T02:32:36.026Z,100417.72
2019-03-09T02:35:06.382Z,100411.59
2019-03-09T02:37:35.790Z,100408.59
2019-03-09T02:40:08.511Z,100409.19
2019-03-09T02:42:37.994Z,100403.66
2019-03-09T02:45:08.988Z,100398.75
2019-03-09T02:47:38.385Z,100392.72
2019-03-09T02:50:08.821Z,100384.03
2019-03-09T02:52:38.056Z,100380.99
2019-03-09T02:55:07.371Z,100373.77
2019-03-09T02:57:36.836Z,100371.11
2019-03-09T03:00:07.476Z,100368.77
2019-03-09T03:02:39.564Z,100363.27
2019-03-09T03:05:09.273Z,100352.78
2019-03-09T03:07:38.567Z,100352.59
2019-03-09T03:10:08.777Z,100341.05
2019-03-09T03:12:38.045Z,100335.81
2019-03-09T03:15:07.922Z,100336.13
2019-03-09T03:17:37.194Z,100334.30
2019-03-09T03:20:06.675Z,100337.64
2019-03-09T03:22:36.034Z,100331.39
2019-03-09T03:25:05.670Z,100315.97
2019-03-09T03:27:34.933Z,100317.36
2019-03-09T03:30:04.369Z,100311.10
2019-03-09T03:32:35.874Z,100300.14
2019-03-09T03:35:05.813Z,100289.65
2019-03-09T03:37:35.157Z,100278.90
2019-03-09T03:40:05.118Z,100278.16
2019-03-09T03:42:34.403Z,100271.91
2019-03-09T03:45:03.701Z,100267.77
2019-03-09T03:47:33.078Z,100263.09
2019-03-09T03:50:02.360Z,100259.62
2019-03-09T03:52:31.697Z,100253.50
2019-03-09T03:55:01.021Z,100249.71
2019-03-09T03:57:30.361Z,100249.42
2019-03-09T03:59:59.873Z,100235.22
2019-03-09T04:02:29.294Z,100235.55
2019-03-09T04:04:58.547Z,100224.89
2019-03-09T04:07:27.856Z,100223.95
2019-03-09T04:09:57.635Z,100222.56
2019-03-09T04:12:26.932Z,100218.59
2019-03-09T04:14:56.210Z,100207.05
2019-03-09T04:17:25.610Z,100204.27
2019-03-09T04:19:54.913Z,100197.63
2019-03-09T04:22:24.156Z,100195.90
2019-03-09T04:24:53.452Z,100190.16
2019-03-09T04:27:22.785Z,100175.76
2019-03-09T04:29:52.172Z,100171.56
2019-03-09T04:32:21.614Z,100167.61
2019-03-09T04:34:50.964Z,100164.75
2019-03-09T04:37:20.294Z,100156.83
2019-03-09T04:39:49.614Z,100151.85
2019-03-09T04:42:18.912Z,100136.57
2019-03-09T04:44:48.273Z,100129.64
2019-03-09T04:47:17.743Z,100125.57
2019-03-09T04:49:47.035Z,100122.69
2019-03-09T04:52:16.338Z,100118.94
2019-03-09T04:54:45.811Z,100112.35
2019-03-09T04:57:15.054Z,100108.53
2019-03-09T04:59:44.352Z,100102.08
2019-03-09T05:02:13.950Z,100098.49
2019-03-09T05:04:51.132Z,100083.28
2019-03-09T05:07:32.785Z,100075.63
2019-03-09T05:10:20.211Z,100072.80
2019-03-09T05:12:51.164Z,100060.52
2019-03-09T05:15:20.438Z,100054.03
2019-03-09T05:17:49.759Z,100054.08
2019-03-09T05:20:19.310Z,100046.12
2019-03-09T05:22:48.568Z,100033.29
2019-03-09T05:25:17.970Z,100033.18
2019-03-09T05:27:47.443Z,100026.89
2019-03-09T05:30:36.190Z,100016.36
2019-03-09T05:33:05.659Z,100016.02
2019-03-09T05:35:34.958Z,100008.95
2019-03-09T05:38:04.390Z,99998.34
2019-03-09T05:40:33.827Z,99991.08
2019-03-09T05:43:03.200Z,99978.03
2019-03-09T05:45:32.499Z,99966.89
2019-03-09T05:48:02.073Z,99958.86
2019-03-09T05:50:31.403Z,99958.19
2019-03-09T05:53:09.759Z,99943.89
2019-03-09T05:55:39.023Z,99941.00
2019-03-09T05:58:08.297Z,99935.70
2019-03-09T06:00:39.145Z,99931.26
2019-03-09T06:03:08.503Z,99920.47
2019-03-09T06:05:55.496Z,99915.14
2019-03-09T06:08:24.785Z,99916.31
2019-03-09T06:10:54.137Z,99911.21
2019-03-09T06:13:23.683Z,99900.09
2019-03-09T06:15:52.975Z,99888.48
2019-03-09T06:18:22.322Z,99888.00
2019-03-09T06:20:51.862Z,99880.38
2019-03-09T06:23:21.127Z,99874.13
2019-03-09T06:25:50.411Z,99867.38
2019-03-09T06:28:19.847Z,99861.11
2019-03-09T06:30:49.137Z,99847.57
2019-03-09T06:33:44.863Z,99852.47
2019-03-09T06:36:50.999Z,99845.74
2019-03-09T06:39:32.002Z,99840.05
2019-03-09T06:42:09.528Z,99833.53
2019-03-09T06:44:39.036Z,99824.85
2019-03-09T06:47:08.292Z,99816.40
2019-03-09T06:49:37.601Z,99801.16
2019-03-09T06:52:07.103Z,99791.35
2019-03-09T06:54:36.412Z,99789.47
2019-03-09T06:57:13.597Z,99780.75
2019-03-09T06:59:36.981Z,99774.80
2019-03-09T07:02:06.473Z,99769.33
2019-03-09T07:04:35.916Z,99763.09
2019-03-09T07:07:05.487Z,99750.83
2019-03-09T07:09:34.731Z,99753.53
2019-03-09T07:12:04.006Z,99745.40
2019-03-09T07:15:19.227Z,99741.86
2019-03-09T07:17:50.025Z,99733.14
2019-03-09T07:20:19.427Z,99720.60
2019-03-09T07:22:48.911Z,99716.24
2019-03-09T07:25:18.175Z,99711.36
2019-03-09T07:28:07.404Z,99699.88
2019-03-09T07:30:36.700Z,99695.24
2019-03-09T07:33:06.076Z,99682.98
2019-03-09T07:35:35.653Z,99679.70
2019-03-09T07:38:05.163Z,99667.98
2019-03-09T07:40:34.423Z,99669.08
2019-03-09T07:43:04.379Z,99658.14
2019-03-09T07:45:33.856Z,99650.52
2019-03-09T07:48:03.208Z,99643.44
2019-03-09T07:50:32.540Z,99637.69
2019-03-09T07:53:02.555Z,99630.88
2019-03-09T07:55:31.840Z,99626.80
2019-03-09T07:58:05.436Z,99632.79
2019-03-09T08:00:34.721Z,99628.45
2019-03-09T08:03:04.148Z,99625.17
2019-03-09T08:05:33.453Z,99619.45
2019-03-09T08:08:02.806Z,99606.37
2019-03-09T08:10:32.171Z,99608.80
2019-03-09T08:13:01.443Z,99607.20
2019-03-09T08:15:30.693Z,99609.09
2019-03-09T08:17:59.984Z,99600.62
2019-03-09T08:20:29.486Z,99583.18
2019-03-09T08:22:58.818Z,99585.11
2019-03-09T08:25:28.148Z,99575.86
2019-03-09T08:27:57.589Z,99570.92
2019-03-09T08:30:26.936Z,99565.76
2019-03-09T08:32:56.244Z,99562.48
2019-03-09T08:35:25.547Z,99548.58
2019-03-09T08:37:54.815Z,99547.50
2019-03-09T08:40:24.066Z,99530.86
2019-03-09T08:42:53.623Z,99525.68
2019-03-09T08:45:23.041Z,99520.22
2019-03-09T08:47:53.134Z,99512.32
2019-03-09T08:50:23.024Z,99492.74
2019-03-09T08:52:52.350Z,99496.27
2019-03-09T08:55:21.793Z,99485.09
2019-03-09T08:57:51.394Z,99463.06
2019-03-09T09:00:30.266Z,99451.05
2019-03-09T09:02:59.705Z,99440.31
2019-03-09T09:05:28.993Z,99432.02
2019-03-09T09:07:58.301Z,99429.19
2019-03-09T09:10:27.717Z,99420.88
2019-03-09T09:12:57.040Z,99411.97
2019-03-09T09:15:26.355Z,99402.98
2019-03-09T09:17:55.957Z,99404.09
2019-03-09T09:20:25.307Z,99399.75
2019-03-09T09:22:54.615Z,99397.62
2019-03-09T09:25:24.161Z,99386.29
2019-03-09T09:27:53.407Z,99374.02
2019-03-09T09:30:24.612Z,99376.02
2019-03-09T09:32:54.112Z,99368.39
2019-03-09T09:35:23.586Z,99369.28
2019-03-09T09:37:53.149Z,99365.48
2019-03-09T09:40:23.437Z,99365.30
2019-03-09T09:42:52.946Z,99349.72
2019-03-09T09:45:22.516Z,99345.70
2019-03-09T09:47:51.924Z,99333.39
2019-03-09T09:50:21.241Z,99331.39
2019-03-09T09:52:51.012Z,99316.66
2019-03-09T09:55:20.599Z,99313.89
2019-03-09T09:57:49.946Z,99314.60
2019-03-09T10:00:24.127Z,99324.63
2019-03-09T10:02:53.435Z,99319.69
2019-03-09T10:05:22.817Z,99326.21
2019-03-09T10:07:52.321Z,99319.14
2019-03-09T10:10:21.685Z,99313.73
2019-03-09T10:12:51.187Z,99318.91
2019-03-09T10:15:22.586Z,99317.45
2019-03-09T10:17:51.860Z,99309.44
2019-03-09T10:20:21.187Z,99311.41
2019-03-09T10:22:50.627Z,99303.87
2019-03-09T10:25:20.038Z,99303.78
2019-03-09T10:27:49.466Z,99296.88
2019-03-09T10:30:20.606Z,99299.30
2019-03-09T10:32:49.894Z,99299.44
2019-03-09T10:35:19.195Z,99302.16
2019-03-09T10:37:48.782Z,99306.20
2019-03-09T10:40:18.272Z,99308.92
2019-03-09T10:42:47.563Z,99303.77
2019-03-09T10:45:17.221Z,99302.39
2019-03-09T10:47:46.525Z,99317.58
2019-03-09T10:50:15.934Z,99314.05
2019-03-09T10:52:45.363Z,99329.45
2019-03-09T10:55:16.686Z,99336.66
2019-03-09T10:57:46.061Z,99331.37
2019-03-09T11:00:18.006Z,99330.73
2019-03-09T11:02:47.539Z,99332.52
2019-03-09T11:05:16.845Z,99334.25
2019-03-09T11:07:46.168Z,99333.89
2019-03-09T11:10:15.747Z,99335.70
2019-03-09T11:12:45.253Z,99331.08
2019-03-09T11:15:14.598Z,99333.34
2019-03-09T11:17:44.023Z,99343.26
2019-03-09T11:20:13.999Z,99332.53
2019-03-09T11:22:43.294Z,99328.34
2019-03-09T11:25:13.020Z,99340.25
2019-03-09T11:27:42.311Z,99339.72
2019-03-09T11:30:17.441Z,99335.77
2019-03-09T11:32:46.813Z,99335.31
2019-03-09T11:35:16.132Z,99336.39
2019-03-09T11:37:45.531Z,99339.59
2019-03-09T11:40:15.217Z,99322.61
2019-03-09T11:42:44.456Z,99322.56
2019-03-09T11:45:14.331Z,99317.06
2019-03-09T11:47:43.612Z,99327.77
2019-03-09T11:50:14.070Z,99323.89
2019-03-09T11:52:43.479Z,99329.20
2019-03-09T11:55:13.020Z,99333.13
2019-03-09T11:57:42.363Z,99333.27
2019-03-09T12:00:12.699Z,99340.52
2019-03-09T12:02:42.094Z,99350.52
2019-03-09T12:05:11.362Z,99357.89
2019-03-09T12:07:41.113Z,99366.47
2019-03-09T12:10:10.747Z,99389.63
2019-03-09T12:12:40.070Z,99399.32
2019-03-09T12:15:10.252Z,99405.55
2019-03-09T12:17:39.604Z,99415.24
2019-03-09T12:20:09.233Z,99418.23
2019-03-09T12:22:38.675Z,99413.81
2019-03-09T12:25:08.890Z,99414.24
2019-03-09T12:27:38.139Z,99412.84
2019-03-09T12:30:08.693Z,99423.77
2019-03-09T12:32:38.103Z,99420.95
2019-03-09T12:35:07.826Z,99405.22
2019-03-09T12:37:37.354Z,99416.28
2019-03-09T12:40:07.302Z,99416.19
2019-03-09T12:42:36.617Z,99408.88
2019-03-09T12:45:06.115Z,99412.29
2019-03-09T12:47:35.401Z,99405.68
2019-03-09T12:50:05.281Z,99408.63
2019-03-09T12:52:34.821Z,99400.91
2019-03-09T12:55:04.181Z,99408.44
2019-03-09T12:57:33.420Z,99410.09
2019-03-09T13:00:02.917Z,99415.28
2019-03-09T13:02:32.273Z,99420.61
2019-03-09T13:05:01.570Z,99424.81
2019-03-09T13:07:31.103Z,99417.17
2019-03-09T13:10:00.399Z,99425.30
2019-03-09T13:12:29.718Z,99420.27
2019-03-09T13:14:59.057Z,99418.84
2019-03-09T13:17:28.312Z,99421.60
2019-03-09T13:19:57.586Z,99417.67
2019-03-09T13:22:26.882Z,99417.39
2019-03-09T13:24:56.204Z,99415.66
2019-03-09T13:27:25.596Z,99414.89
2019-03-09T13:29:55.040Z,99413.34
2019-03-09T13:32:24.769Z,99414.83
2019-03-09T13:34:54.135Z,99412.75
2019-03-09T13:37:23.403Z,99408.08
2019-03-09T13:39:52.881Z,99414.72
2019-03-09T13:42:22.259Z,99409.80
2019-03-09T13:44:51.837Z,99411.16
2019-03-09T13:47:21.323Z,99413.43
2019-03-09T13:49:50.620Z,99411.83
2019-03-09T13:52:20.008Z,99413.25
2019-03-09T13:54:49.374Z,99419.86
2019-03-09T13:57:18.723Z,99409.73
2019-03-09T13:59:47.975Z,99416.58
2019-03-09T14:02:17.355Z,99421.08
2019-03-09T14:04:46.829Z,99418.08
2019-03-09T14:07:16.182Z,99418.99
2019-03-09T14:09:45.450Z,99420.86
2019-03-09T14:12:14.816Z,99411.61
2019-03-09T14:14:44.148Z,99421.09
2019-03-09T14:17:13.532Z,99403.77
2019-03-09T14:19:42.902Z,99423.56
2019-03-09T14:22:12.368Z,99429.30
2019-03-09T14:24:41.624Z,99415.93
2019-03-09T14:27:10.887Z,99446.78
2019-03-09T14:29:40.232Z,99438.41
2019-03-09T14:32:09.720Z,99424.52
2019-03-09T14:34:39.123Z,99419.08
2019-03-09T14:37:08.906Z,99421.69
2019-03-09T14:39:38.322Z,99424.66
2019-03-09T14:42:07.663Z,99414.73
2019-03-09T14:44:37.181Z,99430.86
2019-03-09T14:47:06.547Z,99422.09
2019-03-09T14:49:35.922Z,99418.52
2019-03-09T14:52:05.437Z,99419.32
2019-03-09T14:54:34.738Z,99418.20
2019-03-09T14:57:04.023Z,99404.20
2019-03-09T14:59:33.629Z,99419.55
2019-03-09T15:02:02.945Z,99419.55
2019-03-09T15:04:32.192Z,99429.38
2019-03-09T15:07:06.783Z,99428.83
2019-03-09T15:09:36.015Z,99412.70
2019-03-09T15:12:05.320Z,99428.80
2019-03-09T15:14:34.827Z,99433.77
2019-03-09T15:17:04.128Z,99438.54
2019-03-09T15:19:33.437Z,99425.69
2019-03-09T15:22:02.907Z,99429.74
2019-03-09T15:24:32.254Z,99430.63
2019-03-09T15:27:01.526Z,99426.16
2019-03-09T15:29:32.841Z,99433.50
2019-03-09T15:32:02.088Z,99430.37
2019-03-09T15:34:31.357Z,99432.95
2019-03-09T15:37:00.658Z,99429.49
2019-03-09T15:39:29.883Z,99427.38
2019-03-09T15:41:59.164Z,99417.81
2019-03-09T15:44:28.590Z,99418.38
2019-03-09T15:46:57.904Z,99432.86
2019-03-09T15:49:27.235Z,99436.80
2019-03-09T15:51:56.622Z,99433.64
2019-03-09T15:54:25.830Z,99423.78
2019-03-09T15:56:55.070Z,99439.14
2019-03-09T15:59:24.526Z,99438.63
2019-03-09T16:01:53.844Z,99438.01
2019-03-09T16:04:23.157Z,99490.05
2019-03-09T16:06:52.705Z,99459.45
2019-03-09T16:09:21.998Z,99457.28
2019-03-09T16:11:51.264Z,99457.64
2019-03-09T16:14:20.569Z,99455.47
2019-03-09T16:16:49.827Z,99461.48
2019-03-09T16:19:19.738Z,99453.34
2019-03-09T16:21:49.196Z,99454.23
2019-03-09T16:24:18.537Z,99447.77
2019-03-09T16:26:47.874Z,99456.83
2019-03-09T16:29:17.210Z,99454.16
2019-03-09T16:31:46.495Z,99457.20
2019-03-09T16:34:15.782Z,99452.89
2019-03-09T16:36:45.254Z,99451.56
2019-03-09T16:39:14.501Z,99457.30
2019-03-09T16:41:43.874Z,99442.32
2019-03-09T16:44:13.319Z,99441.20
2019-03-09T16:46:42.569Z,99447.45
2019-03-09T16:49:11.863Z,99442.27
2019-03-09T16:51:41.489Z,99442.53
2019-03-09T16:54:10.798Z,99438.70
2019-03-09T16:56:40.121Z,99442.81
2019-03-09T16:59:09.620Z,99445.01
2019-03-09T17:01:38.907Z,99442.02
2019-03-09T17:04:08.477Z,99439.84
2019-03-09T17:06:38.060Z,99443.91
2019-03-09T17:09:07.698Z,99447.19
2019-03-09T17:11:36.980Z,99440.13
2019-03-09T17:14:06.298Z,99435.52
2019-03-09T17:16:35.636Z,99441.76
2019-03-09T17:19:04.945Z,99447.73
2019-03-09T17:21:34.313Z,99461.63
2019-03-09T17:24:03.605Z,99466.27
2019-03-09T17:26:32.860Z,99465.44
2019-03-09T17:29:02.268Z,99469.79
2019-03-09T17:31:31.599Z,99472.77
2019-03-09T17:34:00.908Z,99475.76
2019-03-09T17:36:30.393Z,99467.05
2019-03-09T17:38:59.726Z,99470.88
2019-03-09T17:41:29.048Z,99470.09
2019-03-09T17:43:58.457Z,99466.28
2019-03-09T17:46:27.738Z,99457.05
2019-03-09T17:48:56.969Z,99453.77
2019-03-09T17:51:26.331Z,99458.97
2019-03-09T17:53:55.658Z,99449.70
2019-03-09T17:56:25.062Z,99453.52
2019-03-09T17:58:54.576Z,99451.87
2019-03-09T18:01:23.822Z,99450.54
2019-03-09T18:03:53.131Z,99451.61
2019-03-09T18:06:23.507Z,99450.80
2019-03-09T18:08:52.838Z,99451.33
2019-03-09T18:11:22.119Z,99448.62
2019-03-09T18:13:51.658Z,99458.41
2019-03-09T18:16:20.927Z,99457.03
2019-03-09T18:18:50.160Z,99461.64
2019-03-09T18:21:19.481Z,99481.23
2019-03-09T18:23:48.855Z,99480.09
2019-03-09T18:26:18.128Z,99468.95
2019-03-09T18:28:47.540Z,99462.70
2019-03-09T18:31:16.833Z,99454.00
2019-03-09T18:33:46.139Z,99453.21
2019-03-09T18:36:15.343Z,99446.69
2019-03-09T18:38:44.641Z,99445.91
2019-03-09T18:41:13.963Z,99438.28
2019-03-09T18:43:43.458Z,99431.73
2019-03-09T18:46:13.958Z,99441.25
2019-03-09T18:48:43.288Z,99435.23
2019-03-09T18:51:12.541Z,99440.95
2019-03-09T18:53:41.834Z,99435.77
2019-03-09T18:56:11.114Z,99430.05
2019-03-09T18:58:40.411Z,99432.17
2019-03-09T19:01:09.693Z,99432.73
2019-03-09T19:03:39.015Z,99423.73
2019-03-09T19:06:08.502Z,99418.54
2019-03-09T19:08:37.858Z,99416.34
2019-03-09T19:11:07.278Z,99417.66
2019-03-09T19:13:36.547Z,99437.53
2019-03-09T19:16:05.771Z,99433.98
2019-03-09T19:18:35.082Z,99441.86
2019-03-09T19:21:04.739Z,99442.95
2019-03-09T19:23:34.040Z,99436.41
2019-03-09T19:26:03.338Z,99434.47
2019-03-09T19:28:32.635Z,99434.72
2019-03-09T19:31:01.933Z,99436.35
2019-03-09T19:33:31.268Z,99432.84
2019-03-09T19:36:00.808Z,99440.73
2019-03-09T19:38:32.017Z,99442.91
2019-03-09T19:41:01.269Z,99441.02
2019-03-09T19:43:30.692Z,99452.48
2019-03-09T19:45:59.948Z,99442.98
2019-03-09T19:48:29.237Z,99448.98
2019-03-09T19:50:58.811Z,99448.18
2019-03-09T19:53:28.185Z,99451.44
2019-03-09T19:55:57.499Z,99447.11
2019-03-09T19:58:26.940Z,99446.55
2019-03-09T20:00:56.212Z,99443.60
2019-03-09T20:03:25.503Z,99444.41
2019-03-09T20:05:54.922Z,99445.22
2019-03-09T20:08:24.170Z,99451.52
2019-03-09T20:10:53.479Z,99450.72
2019-03-09T20:13:22.984Z,99444.19
2019-03-09T20:15:52.371Z,99458.09
2019-03-09T20:18:21.719Z,99457.29
2019-03-09T20:20:51.180Z,99448.59
2019-03-09T20:23:20.484Z,99448.33
2019-03-09T20:25:49.742Z,99451.31
2019-03-09T20:28:19.199Z,99444.24
2019-03-09T20:30:48.535Z,99451.33
2019-03-09T20:33:17.862Z,99443.70
2019-03-09T20:35:47.402Z,99443.71
2019-03-09T20:38:16.809Z,99438.26
2019-03-09T20:40:46.096Z,99441.50
2019-03-09T20:43:15.442Z,99446.13
2019-03-09T20:45:44.775Z,99448.02
2019-03-09T20:48:14.128Z,99448.84
2019-03-09T20:50:43.524Z,99446.39
2019-03-09T20:53:12.766Z,99441.49
2019-03-09T20:55:42.056Z,99442.06
2019-03-09T20:58:13.462Z,99452.66
2019-03-09T21:00:42.535Z,99457.84
2019-03-09T21:03:12.085Z,99449.38
2019-03-09T21:05:41.431Z,99458.10
2019-03-09T21:08:10.762Z,99461.11
2019-03-09T21:10:40.221Z,99464.64
2019-03-09T21:13:09.554Z,99462.75
2019-03-09T21:15:38.808Z,99464.91
2019-03-09T21:18:08.202Z,99466.81
2019-03-09T21:20:37.521Z,99467.91
2019-03-09T21:23:06.900Z,99468.70
2019-03-09T21:25:36.361Z,99479.58
2019-03-09T21:28:05.725Z,99483.11
2019-03-09T21:30:35.020Z,99482.84
2019-03-09T21:33:04.418Z,99475.74
2019-03-09T21:35:33.668Z,99467.31
2019-03-09T21:38:02.958Z,99468.66
2019-03-09T21:40:32.424Z,99477.91
2019-03-09T21:43:01.784Z,99467.83
2019-03-09T21:45:31.122Z,99468.37
2019-03-09T21:48:00.533Z,99451.78
2019-03-09T21:50:29.820Z,99460.77
2019-03-09T21:52:59.261Z,99454.50
2019-03-09T21:55:28.766Z,99455.31
2019-03-09T21:57:58.032Z,99467.27
2019-03-09T22:00:27.370Z,99458.30
2019-03-09T22:02:56.835Z,99460.72
2019-03-09T22:05:26.225Z,99451.24
2019-03-09T22:07:56.037Z,99458.58
2019-03-09T22:10:25.611Z,99450.69
2019-03-09T22:12:55.012Z,99455.06
2019-03-09T22:15:24.384Z,99451.23
2019-03-09T22:17:53.943Z,99453.98
2019-03-09T22:20:23.224Z,99459.17
2019-03-09T22:22:52.510Z,99464.64
2019-03-09T22:25:21.919Z,99468.42
2019-03-09T22:27:51.253Z,99475.22
2019-03-09T22:30:20.639Z,99474.45
2019-03-09T22:32:50.107Z,99466.84
2019-03-09T22:35:19.408Z,99474.47
2019-03-09T22:37:48.768Z,99474.47
2019-03-09T22:40:18.263Z,99472.82
2019-03-09T22:42:47.542Z,99473.91
2019-03-09T22:45:16.991Z,99473.09
2019-03-09T22:47:46.342Z,99478.52
2019-03-09T22:50:16.166Z,99475.52
2019-03-09T22:52:45.567Z,99481.25
2019-03-09T22:55:14.944Z,99477.98
2019-03-09T22:57:44.266Z,99475.54
2019-03-09T23:00:15.379Z,99470.66
2019-03-09T23:02:45.196Z,99485.65
2019-03-09T23:05:14.767Z,99485.09
2019-03-09T23:07:44.077Z,99485.92
2019-03-09T23:10:14.917Z,99496.55
2019-03-09T23:12:45.105Z,99483.22
2019-03-09T23:15:15.258Z,99479.66
2019-03-09T23:17:45.153Z,99471.73
2019-03-09T23:20:14.576Z,99482.59
2019-03-09T23:22:43.871Z,99480.94
2019-03-09T23:25:13.647Z,99484.20
2019-03-09T23:27:42.953Z,99482.00
2019-03-09T23:30:15.045Z,99487.41
2019-03-09T23:32:44.297Z,99487.68
2019-03-09T23:35:15.611Z,99483.02
2019-03-09T23:37:45.269Z,99475.94
2019-03-09T23:40:14.836Z,99470.53
2019-03-09T23:42:44.080Z,99473.01
2019-03-09T23:45:13.935Z,99480.64
2019-03-09T23:47:43.311Z,99469.45
2019-03-09T23:50:13.753Z,99472.20
2019-03-09T23:52:43.080Z,99461.61
2019-03-09T23:55:21.376Z,99464.55
2019-03-09T23:57:43.778Z,99462.07
